sensor_id;sensor_type;location;lat;lon;timestamp;pressure;altitude;pressure_sealevel;temperature;humidity
59513;BME280;45330;51.634;5.562;2023-04-20T00:01:52;102200.25;;;5.92;47.18
59513;BME280;45330;51.634;5.562;2023-04-20T00:04:18;102215.03;;;5.96;47.67
59513;BME280;45330;51.634;5.562;2023-04-20T00:06:44;102205.53;;;5.95;47.51
59513;BME280;45330;51.634;5.562;2023-04-20T00:09:11;102189.59;;;5.83;47.26
59513;BME280;45330;51.634;5.562;2023-04-20T00:11:37;102209.53;;;5.87;47.37
59513;BME280;45330;51.634;5.562;2023-04-20T00:14:02;102204.28;;;5.84;47.65
59513;BME280;45330;51.634;5.562;2023-04-20T00:16:28;102186.84;;;5.78;47.63
59513;BME280;45330;51.634;5.562;2023-04-20T00:18:53;102188.69;;;5.81;47.57
59513;BME280;45330;51.634;5.562;2023-04-20T00:21:19;102168.38;;;5.67;47.61
59513;BME280;45330;51.634;5.562;2023-04-20T00:23:48;102178.25;;;5.79;47.63
59513;BME280;45330;51.634;5.562;2023-04-20T00:26:14;102170.59;;;5.81;47.65
59513;BME280;45330;51.634;5.562;2023-04-20T00:28:39;102129.13;;;5.52;47.91
59513;BME280;45330;51.634;5.562;2023-04-20T00:31:05;102162.31;;;5.65;48.44
59513;BME280;45330;51.634;5.562;2023-04-20T00:33:30;102138.47;;;5.48;48.74
59513;BME280;45330;51.634;5.562;2023-04-20T00:35:55;102137.47;;;5.45;48.71
59513;BME280;45330;51.634;5.562;2023-04-20T00:38:21;102143.25;;;5.38;49.36
59513;BME280;45330;51.634;5.562;2023-04-20T00:40:46;102152.13;;;5.46;49.26
59513;BME280;45330;51.634;5.562;2023-04-20T00:43:18;102144.22;;;5.41;49.30
59513;BME280;45330;51.634;5.562;2023-04-20T00:45:45;102144.06;;;5.37;49.71
59513;BME280;45330;51.634;5.562;2023-04-20T00:48:11;102147.44;;;5.36;50.00
59513;BME280;45330;51.634;5.562;2023-04-20T00:50:38;102116.22;;;5.28;49.71
59513;BME280;45330;51.634;5.562;2023-04-20T00:53:05;102137.25;;;5.39;50.17
59513;BME280;45330;51.634;5.562;2023-04-20T00:55:31;102136.19;;;5.33;50.04
59513;BME280;45330;51.634;5.562;2023-04-20T00:57:57;102137.72;;;5.28;50.82
59513;BME280;45330;51.634;5.562;2023-04-20T01:00:22;102137.50;;;5.22;50.81
59513;BME280;45330;51.634;5.562;2023-04-20T01:02:48;102110.19;;;5.05;51.08
59513;BME280;45330;51.634;5.562;2023-04-20T01:05:13;102101.47;;;5.01;51.34
59513;BME280;45330;51.634;5.562;2023-04-20T01:07:39;102112.78;;;5.05;51.94
59513;BME280;45330;51.634;5.562;2023-04-20T01:10:06;102103.91;;;4.96;52.70
59513;BME280;45330;51.634;5.562;2023-04-20T01:12:32;102081.09;;;4.85;52.70
59513;BME280;45330;51.634;5.562;2023-04-20T01:14:57;102093.94;;;4.83;53.39
59513;BME280;45330;51.634;5.562;2023-04-20T01:17:23;102081.84;;;4.82;53.39
59513;BME280;45330;51.634;5.562;2023-04-20T01:19:49;102068.38;;;4.67;53.86
59513;BME280;45330;51.634;5.562;2023-04-20T01:22:21;102043.13;;;4.58;53.19
59513;BME280;45330;51.634;5.562;2023-04-20T01:24:46;102059.81;;;4.68;53.71
59513;BME280;45330;51.634;5.562;2023-04-20T01:27:12;102045.16;;;4.67;53.63
59513;BME280;45330;51.634;5.562;2023-04-20T01:29:38;102040.78;;;4.64;54.05
59513;BME280;45330;51.634;5.562;2023-04-20T01:32:04;102044.09;;;4.60;54.71
59513;BME280;45330;51.634;5.562;2023-04-20T01:34:30;102060.63;;;4.67;54.71
59513;BME280;45330;51.634;5.562;2023-04-20T01:36:55;102059.72;;;4.64;54.74
59513;BME280;45330;51.634;5.562;2023-04-20T01:39:21;102031.53;;;4.46;54.83
59513;BME280;45330;51.634;5.562;2023-04-20T01:41:46;102052.53;;;4.56;55.15
59513;BME280;45330;51.634;5.562;2023-04-20T01:44:11;102044.69;;;4.54;55.40
59513;BME280;45330;51.634;5.562;2023-04-20T01:46:37;102020.09;;;4.40;56.01
59513;BME280;45330;51.634;5.562;2023-04-20T01:49:04;102023.53;;;4.39;55.89
59513;BME280;45330;51.634;5.562;2023-04-20T01:51:30;102029.25;;;4.32;56.59
59513;BME280;45330;51.634;5.562;2023-04-20T01:53:57;102030.94;;;4.31;56.62
59513;BME280;45330;51.634;5.562;2023-04-20T01:56:23;102030.88;;;4.29;57.24
59513;BME280;45330;51.634;5.562;2023-04-20T01:58:48;102031.53;;;4.24;57.53
59513;BME280;45330;51.634;5.562;2023-04-20T02:01:14;102014.06;;;4.17;57.65
59513;BME280;45330;51.634;5.562;2023-04-20T02:03:39;102027.88;;;4.19;58.06
59513;BME280;45330;51.634;5.562;2023-04-20T02:06:05;102023.47;;;4.16;57.81
59513;BME280;45330;51.634;5.562;2023-04-20T02:08:31;102004.03;;;4.02;58.33
59513;BME280;45330;51.634;5.562;2023-04-20T02:10:57;102010.44;;;4.11;58.25
59513;BME280;45330;51.634;5.562;2023-04-20T02:13:22;101997.00;;;3.98;58.73
59513;BME280;45330;51.634;5.562;2023-04-20T02:15:48;101975.16;;;3.88;59.06
59513;BME280;45330;51.634;5.562;2023-04-20T02:18:13;101997.38;;;4.07;59.17
59513;BME280;45330;51.634;5.562;2023-04-20T02:20:40;101978.16;;;3.99;59.69
59513;BME280;45330;51.634;5.562;2023-04-20T02:23:06;102010.53;;;4.15;60.33
59513;BME280;45330;51.634;5.562;2023-04-20T02:25:32;102014.06;;;4.17;60.65
59513;BME280;45330;51.634;5.562;2023-04-20T02:27:57;102009.91;;;4.20;60.64
59513;BME280;45330;51.634;5.562;2023-04-20T02:30:22;102012.53;;;4.22;60.87
59513;BME280;45330;51.634;5.562;2023-04-20T02:32:48;101987.88;;;4.06;61.87
59513;BME280;45330;51.634;5.562;2023-04-20T02:35:13;102000.13;;;4.11;62.43
59513;BME280;45330;51.634;5.562;2023-04-20T02:37:38;102000.19;;;4.13;63.21
59513;BME280;45330;51.634;5.562;2023-04-20T02:40:05;101995.09;;;4.15;63.93
59513;BME280;45330;51.634;5.562;2023-04-20T02:42:31;101985.47;;;4.10;64.16
59513;BME280;45330;51.634;5.562;2023-04-20T02:44:57;101970.56;;;4.02;65.20
59513;BME280;45330;51.634;5.562;2023-04-20T02:47:22;101989.06;;;4.14;66.17
59513;BME280;45330;51.634;5.562;2023-04-20T02:49:47;101968.34;;;4.11;66.94
59513;BME280;45330;51.634;5.562;2023-04-20T02:52:13;101978.06;;;4.18;67.42
59513;BME280;45330;51.634;5.562;2023-04-20T02:54:39;101951.13;;;4.10;67.89
59513;BME280;45330;51.634;5.562;2023-04-20T02:57:04;101978.34;;;4.26;68.63
59513;BME280;45330;51.634;5.562;2023-04-20T02:59:30;101956.75;;;4.22;68.75
59513;BME280;45330;51.634;5.562;2023-04-20T03:01:55;101970.75;;;4.29;69.37
59513;BME280;45330;51.634;5.562;2023-04-20T03:04:20;101967.28;;;4.28;70.31
59513;BME280;45330;51.634;5.562;2023-04-20T03:06:46;101962.06;;;4.27;71.12
59513;BME280;45330;51.634;5.562;2023-04-20T03:09:14;101940.50;;;4.23;71.60
59513;BME280;45330;51.634;5.562;2023-04-20T03:11:40;101960.94;;;4.43;71.51
59513;BME280;45330;51.634;5.562;2023-04-20T03:14:05;101963.06;;;4.53;71.31
59513;BME280;45330;51.634;5.562;2023-04-20T03:16:30;101948.69;;;4.60;71.60
59513;BME280;45330;51.634;5.562;2023-04-20T03:18:56;101932.34;;;4.59;72.11
59513;BME280;45330;51.634;5.562;2023-04-20T03:21:21;101950.97;;;4.76;72.09
59513;BME280;45330;51.634;5.562;2023-04-20T03:23:47;101952.03;;;4.81;72.33
59513;BME280;45330;51.634;5.562;2023-04-20T03:26:13;101947.97;;;4.88;72.77
59513;BME280;45330;51.634;5.562;2023-04-20T03:28:38;101947.38;;;4.95;72.80
59513;BME280;45330;51.634;5.562;2023-04-20T03:31:04;101922.25;;;4.90;72.98
59513;BME280;45330;51.634;5.562;2023-04-20T03:33:30;101926.16;;;5.04;72.72
59513;BME280;45330;51.634;5.562;2023-04-20T03:35:56;101921.91;;;5.06;73.19
59513;BME280;45330;51.634;5.562;2023-04-20T03:38:21;101925.59;;;5.13;73.00
59513;BME280;45330;51.634;5.562;2023-04-20T03:40:47;101931.16;;;5.25;73.33
59513;BME280;45330;51.634;5.562;2023-04-20T03:43:12;101927.03;;;5.30;73.44
59513;BME280;45330;51.634;5.562;2023-04-20T03:45:37;101914.78;;;5.23;73.73
59513;BME280;45330;51.634;5.562;2023-04-20T03:48:03;101916.63;;;5.27;73.88
59513;BME280;45330;51.634;5.562;2023-04-20T03:50:29;101923.88;;;5.39;73.96
59513;BME280;45330;51.634;5.562;2023-04-20T03:52:54;101907.41;;;5.36;74.64
59513;BME280;45330;51.634;5.562;2023-04-20T03:55:20;101921.53;;;5.47;75.04
59513;BME280;45330;51.634;5.562;2023-04-20T03:57:45;101917.28;;;5.47;74.98
59513;BME280;45330;51.634;5.562;2023-04-20T04:00:11;101898.31;;;5.47;75.05
59513;BME280;45330;51.634;5.562;2023-04-20T04:02:37;101895.13;;;5.54;75.29
59513;BME280;45330;51.634;5.562;2023-04-20T04:05:02;101917.94;;;5.69;76.36
59513;BME280;45330;51.634;5.562;2023-04-20T04:07:28;101913.16;;;5.81;76.39
59513;BME280;45330;51.634;5.562;2023-04-20T04:09:53;101887.16;;;5.75;77.38
59513;BME280;45330;51.634;5.562;2023-04-20T04:12:18;101907.72;;;5.99;77.39
59513;BME280;45330;51.634;5.562;2023-04-20T04:14:44;101882.78;;;6.01;76.51
59513;BME280;45330;51.634;5.562;2023-04-20T04:17:09;101900.78;;;6.27;76.70
59513;BME280;45330;51.634;5.562;2023-04-20T04:19:35;101894.00;;;6.32;76.60
59513;BME280;45330;51.634;5.562;2023-04-20T04:22:00;101890.00;;;6.44;75.95
59513;BME280;45330;51.634;5.562;2023-04-20T04:24:25;101865.41;;;6.26;76.82
59513;BME280;45330;51.634;5.562;2023-04-20T04:26:51;101863.06;;;6.35;76.07
59513;BME280;45330;51.634;5.562;2023-04-20T04:29:20;101877.00;;;6.41;76.67
59513;BME280;45330;51.634;5.562;2023-04-20T04:31:46;101856.06;;;6.31;76.48
59513;BME280;45330;51.634;5.562;2023-04-20T04:34:11;101862.34;;;6.41;76.35
59513;BME280;45330;51.634;5.562;2023-04-20T04:36:37;101837.03;;;6.28;76.59
59513;BME280;45330;51.634;5.562;2023-04-20T04:39:03;101861.66;;;6.47;76.84
59513;BME280;45330;51.634;5.562;2023-04-20T04:41:28;101850.31;;;6.42;76.53
59513;BME280;45330;51.634;5.562;2023-04-20T04:43:54;101863.50;;;6.51;76.05
59513;BME280;45330;51.634;5.562;2023-04-20T04:46:20;101853.09;;;6.49;75.97
59513;BME280;45330;51.634;5.562;2023-04-20T04:48:45;101837.41;;;6.42;76.16
59513;BME280;45330;51.634;5.562;2023-04-20T04:51:11;101853.13;;;6.51;76.37
59513;BME280;45330;51.634;5.562;2023-04-20T04:53:36;101850.66;;;6.54;76.42
59513;BME280;45330;51.634;5.562;2023-04-20T04:56:03;101833.06;;;6.41;77.03
59513;BME280;45330;51.634;5.562;2023-04-20T04:58:28;101847.00;;;6.46;77.44
59513;BME280;45330;51.634;5.562;2023-04-20T05:00:55;101856.47;;;6.47;77.27
59513;BME280;45330;51.634;5.562;2023-04-20T05:03:20;101839.91;;;6.39;77.40
59513;BME280;45330;51.634;5.562;2023-04-20T05:05:45;101847.91;;;6.48;77.23
59513;BME280;45330;51.634;5.562;2023-04-20T05:08:11;101828.84;;;6.44;76.83
59513;BME280;45330;51.634;5.562;2023-04-20T05:10:36;101857.50;;;6.52;78.10
59513;BME280;45330;51.634;5.562;2023-04-20T05:13:02;101857.50;;;6.52;78.58
59513;BME280;45330;51.634;5.562;2023-04-20T05:15:27;101854.00;;;6.50;78.44
59513;BME280;45330;51.634;5.562;2023-04-20T05:17:53;101850.69;;;6.56;77.62
59513;BME280;45330;51.634;5.562;2023-04-20T05:20:18;101839.25;;;6.46;78.03
59513;BME280;45330;51.634;5.562;2023-04-20T05:22:45;101850.69;;;6.56;78.29
59513;BME280;45330;51.634;5.562;2023-04-20T05:25:10;101834.09;;;6.47;78.46
59513;BME280;45330;51.634;5.562;2023-04-20T05:27:36;101848.22;;;6.60;78.50
59513;BME280;45330;51.634;5.562;2023-04-20T05:30:01;101852.50;;;6.58;79.00
59513;BME280;45330;51.634;5.562;2023-04-20T05:32:27;101851.63;;;6.59;79.46
59513;BME280;45330;51.634;5.562;2023-04-20T05:34:52;101840.50;;;6.62;79.11
59513;BME280;45330;51.634;5.562;2023-04-20T05:37:17;101829.22;;;6.58;79.42
59513;BME280;45330;51.634;5.562;2023-04-20T05:39:43;101840.66;;;6.68;79.31
59513;BME280;45330;51.634;5.562;2023-04-20T05:42:08;101837.22;;;6.67;79.52
59513;BME280;45330;51.634;5.562;2023-04-20T05:44:33;101832.84;;;6.66;79.92
59513;BME280;45330;51.634;5.562;2023-04-20T05:47:03;101831.25;;;6.70;80.44
59513;BME280;45330;51.634;5.562;2023-04-20T05:49:31;101833.88;;;6.72;80.55
59513;BME280;45330;51.634;5.562;2023-04-20T05:51:56;101836.53;;;6.75;80.08
59513;BME280;45330;51.634;5.562;2023-04-20T05:54:22;101827.94;;;6.76;80.75
59513;BME280;45330;51.634;5.562;2023-04-20T05:56:47;101835.09;;;6.86;79.65
59513;BME280;45330;51.634;5.562;2023-04-20T05:59:13;101796.13;;;6.80;80.59
59513;BME280;45330;51.634;5.562;2023-04-20T06:01:39;101817.22;;;6.95;80.62
59513;BME280;45330;51.634;5.562;2023-04-20T06:04:05;101823.97;;;7.27;80.17
59513;BME280;45330;51.634;5.562;2023-04-20T06:06:30;101821.88;;;7.47;78.60
59513;BME280;45330;51.634;5.562;2023-04-20T06:08:56;101823.94;;;7.63;78.53
59513;BME280;45330;51.634;5.562;2023-04-20T06:11:22;101817.41;;;7.81;77.58
59513;BME280;45330;51.634;5.562;2023-04-20T06:13:47;101809.34;;;7.67;77.22
59513;BME280;45330;51.634;5.562;2023-04-20T06:16:13;101829.28;;;7.69;77.79
59513;BME280;45330;51.634;5.562;2023-04-20T06:18:38;101803.94;;;7.56;77.11
59513;BME280;45330;51.634;5.562;2023-04-20T06:21:03;101819.41;;;7.53;77.74
59513;BME280;45330;51.634;5.562;2023-04-20T06:23:29;101831.28;;;7.43;78.44
59513;BME280;45330;51.634;5.562;2023-04-20T06:25:54;101812.03;;;7.32;79.32
59513;BME280;45330;51.634;5.562;2023-04-20T06:28:19;101809.63;;;7.41;79.58
59513;BME280;45330;51.634;5.562;2023-04-20T06:30:45;101821.16;;;7.54;78.74
59513;BME280;45330;51.634;5.562;2023-04-20T06:33:11;101823.00;;;7.58;80.33
59513;BME280;45330;51.634;5.562;2023-04-20T06:35:41;101818.41;;;7.48;79.05
59513;BME280;45330;51.634;5.562;2023-04-20T06:38:07;101822.66;;;7.43;79.33
59513;BME280;45330;51.634;5.562;2023-04-20T06:40:32;101816.69;;;7.47;79.86
59513;BME280;45330;51.634;5.562;2023-04-20T06:42:57;101810.88;;;7.57;79.52
59513;BME280;45330;51.634;5.562;2023-04-20T06:45:23;101811.91;;;7.65;79.74
59513;BME280;45330;51.634;5.562;2023-04-20T06:47:48;101823.81;;;7.57;79.17
59513;BME280;45330;51.634;5.562;2023-04-20T06:50:13;101781.00;;;7.33;79.61
59513;BME280;45330;51.634;5.562;2023-04-20T06:52:40;101813.47;;;7.57;79.87
59513;BME280;45330;51.634;5.562;2023-04-20T06:55:06;101811.66;;;7.54;79.26
59513;BME280;45330;51.634;5.562;2023-04-20T06:57:31;101813.38;;;7.52;79.01
59513;BME280;45330;51.634;5.562;2023-04-20T06:59:57;101815.13;;;7.55;78.28
59513;BME280;45330;51.634;5.562;2023-04-20T07:02:23;101801.16;;;7.47;78.41
59513;BME280;45330;51.634;5.562;2023-04-20T07:04:48;101802.75;;;7.42;78.70
59513;BME280;45330;51.634;5.562;2023-04-20T07:07:14;101804.53;;;7.43;78.34
59513;BME280;45330;51.634;5.562;2023-04-20T07:09:40;101800.25;;;7.46;78.12
59513;BME280;45330;51.634;5.562;2023-04-20T07:12:05;101803.59;;;7.41;78.29
59513;BME280;45330;51.634;5.562;2023-04-20T07:14:30;101825.97;;;7.37;79.09
59513;BME280;45330;51.634;5.562;2023-04-20T07:16:56;101793.81;;;7.27;79.17
59513;BME280;45330;51.634;5.562;2023-04-20T07:19:21;101799.06;;;7.30;79.99
59513;BME280;45330;51.634;5.562;2023-04-20T07:21:47;101803.41;;;7.31;79.12
59513;BME280;45330;51.634;5.562;2023-04-20T07:24:12;101793.81;;;7.27;79.42
59513;BME280;45330;51.634;5.562;2023-04-20T07:26:38;101808.59;;;7.31;79.63
59513;BME280;45330;51.634;5.562;2023-04-20T07:29:03;101801.78;;;7.36;79.64
59513;BME280;45330;51.634;5.562;2023-04-20T07:31:29;101811.34;;;7.39;80.24
59513;BME280;45330;51.634;5.562;2023-04-20T07:33:54;101786.25;;;7.38;80.15
59513;BME280;45330;51.634;5.562;2023-04-20T07:36:20;101800.78;;;7.69;78.87
59513;BME280;45330;51.634;5.562;2023-04-20T07:38:47;101796.78;;;7.85;78.39
59513;BME280;45330;51.634;5.562;2023-04-20T07:41:14;101802.31;;;8.02;77.54
59513;BME280;45330;51.634;5.562;2023-04-20T07:43:39;101796.03;;;7.91;78.08
59513;BME280;45330;51.634;5.562;2023-04-20T07:46:05;101808.78;;;7.82;78.50
59513;BME280;45330;51.634;5.562;2023-04-20T07:48:30;101814.59;;;7.70;78.72
59513;BME280;45330;51.634;5.562;2023-04-20T07:50:56;101813.03;;;7.78;79.36
59513;BME280;45330;51.634;5.562;2023-04-20T07:53:22;101803.50;;;7.77;79.38
59513;BME280;45330;51.634;5.562;2023-04-20T07:55:47;101813.31;;;7.90;79.06
59513;BME280;45330;51.634;5.562;2023-04-20T07:58:13;101812.56;;;7.96;78.90
59513;BME280;45330;51.634;5.562;2023-04-20T08:00:40;101803.31;;;8.11;78.06
59513;BME280;45330;51.634;5.562;2023-04-20T08:03:05;101811.09;;;8.11;78.43
59513;BME280;45330;51.634;5.562;2023-04-20T08:05:31;101800.38;;;7.92;79.04
59513;BME280;45330;51.634;5.562;2023-04-20T08:07:56;101799.56;;;7.95;78.73
59513;BME280;45330;51.634;5.562;2023-04-20T08:10:23;101796.34;;;8.06;79.23
59513;BME280;45330;51.634;5.562;2023-04-20T08:12:48;101805.13;;;8.15;78.61
59513;BME280;45330;51.634;5.562;2023-04-20T08:15:14;101795.56;;;8.11;79.44
59513;BME280;45330;51.634;5.562;2023-04-20T08:17:39;101789.41;;;8.05;78.91
59513;BME280;45330;51.634;5.562;2023-04-20T08:20:05;101799.28;;;8.25;79.27
59513;BME280;45330;51.634;5.562;2023-04-20T08:22:32;101802.19;;;8.44;78.69
59513;BME280;45330;51.634;5.562;2023-04-20T08:24:58;101794.69;;;8.56;78.12
59513;BME280;45330;51.634;5.562;2023-04-20T08:27:24;101792.25;;;8.65;78.54
59513;BME280;45330;51.634;5.562;2023-04-20T08:29:50;101776.06;;;8.80;77.86
59513;BME280;45330;51.634;5.562;2023-04-20T08:32:16;101787.41;;;8.87;77.12
59513;BME280;45330;51.634;5.562;2023-04-20T08:34:47;101773.94;;;9.13;76.91
59513;BME280;45330;51.634;5.562;2023-04-20T08:37:12;101797.31;;;9.13;75.11
59513;BME280;45330;51.634;5.562;2023-04-20T08:39:38;101778.00;;;8.93;75.82
59513;BME280;45330;51.634;5.562;2023-04-20T08:42:04;101780.59;;;8.92;76.17
59513;BME280;45330;51.634;5.562;2023-04-20T08:44:30;101768.91;;;8.65;75.67
59513;BME280;45330;51.634;5.562;2023-04-20T08:46:55;101782.09;;;8.78;77.54
59513;BME280;45330;51.634;5.562;2023-04-20T08:49:21;101766.03;;;9.02;75.71
59513;BME280;45330;51.634;5.562;2023-04-20T08:51:47;101760.09;;;9.12;76.38
59513;BME280;45330;51.634;5.562;2023-04-20T08:54:13;101761.09;;;9.19;75.77
59513;BME280;45330;51.634;5.562;2023-04-20T08:56:44;101768.19;;;9.32;75.72
59513;BME280;45330;51.634;5.562;2023-04-20T08:59:10;101783.91;;;9.43;74.97
59513;BME280;45330;51.634;5.562;2023-04-20T09:01:38;101781.69;;;9.09;75.49
59513;BME280;45330;51.634;5.562;2023-04-20T09:04:25;101773.59;;;8.88;77.11
59513;BME280;45330;51.634;5.562;2023-04-20T09:06:52;101773.59;;;8.88;77.67
59513;BME280;45330;51.634;5.562;2023-04-20T09:09:20;101751.34;;;9.04;76.81
59513;BME280;45330;51.634;5.562;2023-04-20T09:11:47;101748.41;;;9.43;75.95
59513;BME280;45330;51.634;5.562;2023-04-20T09:14:14;101756.13;;;9.36;74.44
59513;BME280;45330;51.634;5.562;2023-04-20T09:16:57;101761.03;;;9.16;75.55
59513;BME280;45330;51.634;5.562;2023-04-20T09:19:30;101756.03;;;9.30;75.01
59513;BME280;45330;51.634;5.562;2023-04-20T09:21:57;101749.78;;;9.17;75.51
59513;BME280;45330;51.634;5.562;2023-04-20T09:24:30;101756.09;;;9.34;76.33
59513;BME280;45330;51.634;5.562;2023-04-20T09:26:56;101749.75;;;9.15;77.17
59513;BME280;45330;51.634;5.562;2023-04-20T09:29:23;101756.97;;;9.36;77.23
59513;BME280;45330;51.634;5.562;2023-04-20T09:31:50;101747.56;;;9.44;77.06
59513;BME280;45330;51.634;5.562;2023-04-20T09:34:16;101763.28;;;9.54;76.70
59513;BME280;45330;51.634;5.562;2023-04-20T09:36:43;101764.25;;;8.99;78.14
59513;BME280;45330;51.634;5.562;2023-04-20T09:39:14;101751.75;;;8.73;79.03
59513;BME280;45330;51.634;5.562;2023-04-20T09:41:41;101765.56;;;8.72;79.06
59513;BME280;45330;51.634;5.562;2023-04-20T09:44:07;101768.75;;;8.56;81.45
59513;BME280;45330;51.634;5.562;2023-04-20T09:46:35;101772.09;;;8.50;81.79
59513;BME280;45330;51.634;5.562;2023-04-20T09:49:07;101754.44;;;8.31;83.13
59513;BME280;45330;51.634;5.562;2023-04-20T09:51:35;101755.59;;;7.99;84.47
59513;BME280;45330;51.634;5.562;2023-04-20T09:54:02;101755.66;;;8.02;84.48
59513;BME280;45330;51.634;5.562;2023-04-20T09:56:28;101738.28;;;7.98;85.07
59513;BME280;45330;51.634;5.562;2023-04-20T09:58:55;101753.53;;;8.27;83.98
59513;BME280;45330;51.634;5.562;2023-04-20T10:01:21;101752.00;;;8.40;83.42
59513;BME280;45330;51.634;5.562;2023-04-20T10:03:48;101733.56;;;8.23;83.09
59513;BME280;45330;51.634;5.562;2023-04-20T10:06:33;101741.16;;;8.14;83.47
59513;BME280;45330;51.634;5.562;2023-04-20T10:09:04;101732.28;;;8.01;83.93
59513;BME280;45330;51.634;5.562;2023-04-20T10:11:36;101723.00;;;8.12;84.67
59513;BME280;45330;51.634;5.562;2023-04-20T10:14:23;101746.63;;;8.29;84.93
59513;BME280;45330;51.634;5.562;2023-04-20T10:17:08;101746.56;;;8.24;85.59
59513;BME280;45330;51.634;5.562;2023-04-20T10:19:37;101740.31;;;8.15;85.53
59513;BME280;45330;51.634;5.562;2023-04-20T10:22:03;101741.22;;;8.17;85.48
59513;BME280;45330;51.634;5.562;2023-04-20T10:24:29;101741.44;;;8.29;85.42
59513;BME280;45330;51.634;5.562;2023-04-20T10:26:55;101737.59;;;8.56;84.55
59513;BME280;45330;51.634;5.562;2023-04-20T10:29:27;101731.22;;;8.89;83.02
59513;BME280;45330;51.634;5.562;2023-04-20T10:31:53;101719.16;;;8.94;82.74
59513;BME280;45330;51.634;5.562;2023-04-20T10:34:32;101703.63;;;8.97;82.75
59513;BME280;45330;51.634;5.562;2023-04-20T10:37:12;101714.44;;;9.28;80.89
59513;BME280;45330;51.634;5.562;2023-04-20T10:39:45;101712.38;;;9.02;80.70
59513;BME280;45330;51.634;5.562;2023-04-20T10:42:10;101700.78;;;8.80;80.38
59513;BME280;45330;51.634;5.562;2023-04-20T10:44:52;101692.94;;;8.75;81.25
59513;BME280;45330;51.634;5.562;2023-04-20T10:47:36;101690.31;;;8.72;79.71
59513;BME280;45330;51.634;5.562;2023-04-20T10:50:11;101703.28;;;8.72;80.73
59513;BME280;45330;51.634;5.562;2023-04-20T10:52:39;101708.59;;;8.82;80.68
59513;BME280;45330;51.634;5.562;2023-04-20T10:55:06;101705.19;;;8.84;79.62
59513;BME280;45330;51.634;5.562;2023-04-20T10:57:32;101699.22;;;8.90;79.20
59513;BME280;45330;51.634;5.562;2023-04-20T10:59:58;101694.25;;;9.07;79.23
59513;BME280;45330;51.634;5.562;2023-04-20T11:02:24;101705.59;;;9.14;78.90
59513;BME280;45330;51.634;5.562;2023-04-20T11:04:49;101697.91;;;9.20;77.38
59513;BME280;45330;51.634;5.562;2023-04-20T11:07:14;101694.00;;;9.56;77.94
59513;BME280;45330;51.634;5.562;2023-04-20T11:09:41;101687.41;;;9.86;76.31
59513;BME280;45330;51.634;5.562;2023-04-20T11:12:08;101673.03;;;10.23;74.54
59513;BME280;45330;51.634;5.562;2023-04-20T11:14:37;101670.22;;;9.99;72.29
59513;BME280;45330;51.634;5.562;2023-04-20T11:17:04;101667.31;;;9.69;73.23
59513;BME280;45330;51.634;5.562;2023-04-20T11:19:32;101677.91;;;9.86;74.07
59513;BME280;45330;51.634;5.562;2023-04-20T11:21:58;101684.88;;;9.89;73.63
59513;BME280;45330;51.634;5.562;2023-04-20T11:24:26;101676.81;;;9.69;72.85
59513;BME280;45330;51.634;5.562;2023-04-20T11:26:53;101673.13;;;9.47;73.24
59513;BME280;45330;51.634;5.562;2023-04-20T11:29:34;101668.03;;;9.57;72.76
59513;BME280;45330;51.634;5.562;2023-04-20T11:32:08;101660.06;;;9.40;73.13
59513;BME280;45330;51.634;5.562;2023-04-20T11:34:35;101647.84;;;9.33;73.44
59513;BME280;45330;51.634;5.562;2023-04-20T11:37:08;101632.06;;;9.15;74.58
59513;BME280;45330;51.634;5.562;2023-04-20T11:39:36;101657.41;;;9.34;75.64
59513;BME280;45330;51.634;5.562;2023-04-20T11:42:02;101657.22;;;9.20;75.64
59513;BME280;45330;51.634;5.562;2023-04-20T11:44:28;101640.53;;;9.01;75.88
59513;BME280;45330;51.634;5.562;2023-04-20T11:46:54;101658.97;;;9.20;74.98
59513;BME280;45330;51.634;5.562;2023-04-20T11:49:22;101657.19;;;9.16;75.26
59513;BME280;45330;51.634;5.562;2023-04-20T11:51:48;101643.19;;;9.06;76.42
59513;BME280;45330;51.634;5.562;2023-04-20T11:54:14;101654.28;;;8.94;81.33
59513;BME280;45330;51.634;5.562;2023-04-20T11:56:40;101662.38;;;8.56;86.65
59513;BME280;45330;51.634;5.562;2023-04-20T11:59:07;101671.59;;;7.88;99.56
59513;BME280;45330;51.634;5.562;2023-04-20T12:01:34;101656.94;;;7.44;100.00
59513;BME280;45330;51.634;5.562;2023-04-20T12:04:00;101633.19;;;7.22;100.00
59513;BME280;45330;51.634;5.562;2023-04-20T12:06:27;101622.53;;;7.09;100.00
59513;BME280;45330;51.634;5.562;2023-04-20T12:08:53;101650.69;;;7.33;100.00
59513;BME280;45330;51.634;5.562;2023-04-20T12:11:20;101645.63;;;7.39;100.00
59513;BME280;45330;51.634;5.562;2023-04-20T12:13:45;101664.88;;;7.53;100.00
59513;BME280;45330;51.634;5.562;2023-04-20T12:16:10;101652.63;;;7.45;100.00
59513;BME280;45330;51.634;5.562;2023-04-20T12:18:36;101674.44;;;7.58;100.00
59513;BME280;45330;51.634;5.562;2023-04-20T12:21:02;101665.66;;;7.49;100.00
59513;BME280;45330;51.634;5.562;2023-04-20T12:23:27;101660.47;;;7.07;100.00
59513;BME280;45330;51.634;5.562;2023-04-20T12:25:53;101650.00;;;7.00;100.00
59513;BME280;45330;51.634;5.562;2023-04-20T12:28:18;101652.00;;;7.14;100.00
59513;BME280;45330;51.634;5.562;2023-04-20T12:30:44;101644.63;;;7.34;100.00
59513;BME280;45330;51.634;5.562;2023-04-20T12:33:09;101649.19;;;7.46;100.00
59513;BME280;45330;51.634;5.562;2023-04-20T12:35:35;101628.50;;;7.46;100.00
59513;BME280;45330;51.634;5.562;2023-04-20T12:38:00;101625.75;;;7.85;100.00
59513;BME280;45330;51.634;5.562;2023-04-20T12:40:25;101631.72;;;8.33;100.00
59513;BME280;45330;51.634;5.562;2023-04-20T12:42:51;101629.59;;;8.61;100.00
59513;BME280;45330;51.634;5.562;2023-04-20T12:45:16;101635.81;;;8.72;100.00
59513;BME280;45330;51.634;5.562;2023-04-20T12:47:42;101636.19;;;9.00;100.00
59513;BME280;45330;51.634;5.562;2023-04-20T12:50:08;101627.03;;;9.30;100.00
59513;BME280;45330;51.634;5.562;2023-04-20T12:52:33;101639.44;;;9.56;100.00
59513;BME280;45330;51.634;5.562;2023-04-20T12:54:59;101636.78;;;9.50;100.00
59513;BME280;45330;51.634;5.562;2023-04-20T12:57:26;101635.06;;;9.50;100.00